createdAt,value
2022-12-18T00:01:35.077Z,39.00
2022-12-18T00:04:05.154Z,44.60
2022-12-18T00:06:33.888Z,44.00
2022-12-18T00:09:01.348Z,25.00
2022-12-18T00:11:31.400Z,45.60
2022-12-18T00:14:00.847Z,38.40
2022-12-18T00:16:29.309Z,36.80
2022-12-18T00:18:58.206Z,31.20
2022-12-18T00:21:24.999Z,46.20
2022-12-18T00:23:52.556Z,42.00
2022-12-18T00:26:31.070Z,29.80
2022-12-18T00:29:03.177Z,37.80
2022-12-18T00:31:30.887Z,41.80
2022-12-18T00:33:58.455Z,44.20
2022-12-18T00:36:29.236Z,36.00
2022-12-18T00:38:58.225Z,54.80
2022-12-18T00:41:44.120Z,33.80
2022-12-18T00:44:14.651Z,39.00
2022-12-18T00:46:42.866Z,49.60
2022-12-18T00:49:09.696Z,22.60
2022-12-18T00:51:36.469Z,35.40
2022-12-18T00:54:03.816Z,64.20
2022-12-18T00:56:30.748Z,36.40
2022-12-18T00:58:57.586Z,45.60
2022-12-18T01:01:24.668Z,46.60
2022-12-18T01:03:51.986Z,38.20
2022-12-18T01:06:19.287Z,40.80
2022-12-18T01:08:46.275Z,34.00
2022-12-18T01:11:18.806Z,40.00
2022-12-18T01:13:46.417Z,38.00
2022-12-18T01:16:18.104Z,34.80
2022-12-18T01:18:45.521Z,34.20
2022-12-18T01:21:15.616Z,41.20
2022-12-18T01:23:43.087Z,43.80
2022-12-18T01:26:15.138Z,44.80
2022-12-18T01:28:42.985Z,46.40
2022-12-18T01:31:14.420Z,39.60
2022-12-18T01:33:42.104Z,35.60
2022-12-18T01:36:10.088Z,33.80
2022-12-18T01:38:36.876Z,36.20
2022-12-18T01:41:03.907Z,47.00
2022-12-18T01:43:44.408Z,36.80
2022-12-18T01:46:11.589Z,47.60
2022-12-18T01:48:40.179Z,37.20
2022-12-18T01:51:10.516Z,52.40
2022-12-18T01:53:40.608Z,47.20
2022-12-18T01:56:08.768Z,51.00
2022-12-18T01:58:48.827Z,36.00
2022-12-18T02:01:17.898Z,44.80
2022-12-18T02:03:45.619Z,33.40
2022-12-18T02:06:23.437Z,35.40
2022-12-18T02:08:53.237Z,29.20
2022-12-18T02:11:35.620Z,52.00
2022-12-18T02:14:20.406Z,35.20
2022-12-18T02:17:02.400Z,54.60
2022-12-18T02:19:55.968Z,31.60
2022-12-18T02:22:28.548Z,39.00
2022-12-18T02:25:32.576Z,49.80
2022-12-18T02:28:03.278Z,43.20
2022-12-18T02:30:37.465Z,37.20
2022-12-18T02:33:08.185Z,35.40
2022-12-18T02:35:37.615Z,42.60
2022-12-18T02:38:06.168Z,39.60
2022-12-18T02:40:33.618Z,35.40
2022-12-18T02:43:14.375Z,47.40
2022-12-18T02:45:59.475Z,34.00
2022-12-18T02:48:31.106Z,50.40
2022-12-18T02:51:30.319Z,32.40
2022-12-18T02:54:39.557Z,41.60
2022-12-18T02:57:19.698Z,41.00
2022-12-18T03:00:02.789Z,35.20
2022-12-18T03:02:41.900Z,45.60
2022-12-18T03:05:15.157Z,30.00
2022-12-18T03:07:52.675Z,38.80
2022-12-18T03:10:28.920Z,46.60
2022-12-18T03:13:06.395Z,48.20
2022-12-18T03:15:39.928Z,48.60
2022-12-18T03:18:31.100Z,47.60
2022-12-18T03:21:03.288Z,41.40
2022-12-18T03:23:36.497Z,52.00
2022-12-18T03:26:09.103Z,35.60
2022-12-18T03:28:43.615Z,35.80
2022-12-18T03:31:13.944Z,46.40
2022-12-18T03:33:52.338Z,40.80
2022-12-18T03:36:19.557Z,40.20
2022-12-18T03:38:46.477Z,53.20
2022-12-18T03:41:33.416Z,44.60
2022-12-18T03:44:05.482Z,44.80
2022-12-18T03:46:41.065Z,40.80
2022-12-18T03:49:18.508Z,36.80
2022-12-18T03:51:57.118Z,33.40
2022-12-18T03:54:26.885Z,50.00
2022-12-18T03:57:02.536Z,40.60
2022-12-18T03:59:31.527Z,45.40
2022-12-18T04:02:01.045Z,52.40
2022-12-18T04:04:30.168Z,43.60
2022-12-18T04:06:58.507Z,51.80
2022-12-18T04:09:25.817Z,40.60
2022-12-18T04:11:53.438Z,42.40
2022-12-18T04:14:20.898Z,47.60
2022-12-18T04:16:47.829Z,47.40
2022-12-18T04:23:51.694Z,36.80
2022-12-18T04:26:18.530Z,33.80
2022-12-18T04:28:45.440Z,52.00
2022-12-18T04:31:12.603Z,36.60
2022-12-18T04:33:39.845Z,46.60
2022-12-18T04:36:07.295Z,36.80
2022-12-18T04:38:34.621Z,41.20
2022-12-18T04:41:01.533Z,40.20
2022-12-18T04:43:30.661Z,32.00
2022-12-18T04:46:08.090Z,38.20
2022-12-18T04:48:35.422Z,34.00
2022-12-18T04:51:02.691Z,36.60
2022-12-18T04:53:29.783Z,42.20
2022-12-18T04:56:14.752Z,45.20
2022-12-18T04:58:43.931Z,46.00
2022-12-18T05:01:12.507Z,40.20
2022-12-18T05:03:40.201Z,48.60
2022-12-18T05:06:07.903Z,39.80
2022-12-18T05:08:34.781Z,44.60
2022-12-18T05:11:06.701Z,47.00
2022-12-18T05:13:34.431Z,42.00
2022-12-18T05:16:01.978Z,38.20
2022-12-18T05:18:28.963Z,42.60
2022-12-18T05:20:56.194Z,35.00
2022-12-18T05:23:24.564Z,49.20
2022-12-18T05:25:57.257Z,35.00
2022-12-18T05:28:26.077Z,35.60
2022-12-18T05:30:54.684Z,29.20
2022-12-18T05:33:23.393Z,40.60
2022-12-18T05:35:54.826Z,48.60
2022-12-18T05:38:23.193Z,34.25
2022-12-18T05:40:51.413Z,37.50
2022-12-18T05:43:21.368Z,33.40
2022-12-18T05:45:50.287Z,30.80
2022-12-18T05:48:17.931Z,45.00
2022-12-18T05:50:47.621Z,42.40
2022-12-18T05:53:16.865Z,33.75
2022-12-18T05:55:44.785Z,38.20
2022-12-18T05:58:13.154Z,41.25
2022-12-18T06:00:43.249Z,40.40
2022-12-18T06:03:11.489Z,33.40
2022-12-18T06:05:41.600Z,39.25
2022-12-18T06:08:09.119Z,45.60
2022-12-18T06:10:36.413Z,47.75
2022-12-18T06:13:03.373Z,52.60
2022-12-18T06:15:30.333Z,34.40
2022-12-18T06:17:57.166Z,39.00
2022-12-18T06:20:24.737Z,30.25
2022-12-18T06:22:54.923Z,42.50
2022-12-18T06:25:21.693Z,44.00
2022-12-18T06:27:49.520Z,35.20
2022-12-18T06:30:16.713Z,44.25
2022-12-18T06:32:44.022Z,38.25
2022-12-18T06:35:11.813Z,34.80
2022-12-18T06:37:38.681Z,35.60
2022-12-18T06:40:06.710Z,40.00
2022-12-18T06:42:33.603Z,39.40
2022-12-18T06:45:00.505Z,48.40
2022-12-18T06:47:27.672Z,37.80
2022-12-18T06:49:54.514Z,41.75
2022-12-18T06:52:21.534Z,27.75
2022-12-18T06:54:48.381Z,38.75
2022-12-18T06:57:15.275Z,45.25
2022-12-18T06:59:42.151Z,39.40
2022-12-18T07:02:13.892Z,39.80
2022-12-18T07:04:41.193Z,44.20
2022-12-18T07:07:08.061Z,37.40
2022-12-18T07:09:35.123Z,39.50
2022-12-18T07:12:02.286Z,31.75
2022-12-18T07:14:29.254Z,42.80
2022-12-18T07:16:58.529Z,45.00
2022-12-18T07:19:26.102Z,41.50
2022-12-18T07:21:53.738Z,35.25
2022-12-18T07:24:20.514Z,47.00
2022-12-18T07:26:48.422Z,54.50
2022-12-18T07:29:15.493Z,46.00
2022-12-18T07:31:42.463Z,47.00
2022-12-18T07:34:16.481Z,65.33
2022-12-18T07:36:43.784Z,48.75
2022-12-18T07:39:12.423Z,53.00
2022-12-18T07:41:43.820Z,54.50
2022-12-18T07:44:13.979Z,52.50
2022-12-18T07:46:40.872Z,46.25
2022-12-18T07:49:08.002Z,43.00
2022-12-18T07:51:34.923Z,54.50
2022-12-18T07:54:01.908Z,48.25
2022-12-18T07:56:30.312Z,59.00
2022-12-18T07:58:59.739Z,36.25
2022-12-18T08:01:27.222Z,45.00
2022-12-18T08:03:54.353Z,45.00
2022-12-18T08:06:23.970Z,49.25
2022-12-18T08:08:56.800Z,39.75
2022-12-18T08:11:26.063Z,35.20
2022-12-18T08:13:53.236Z,46.75
2022-12-18T08:16:21.146Z,50.75
2022-12-18T08:18:48.824Z,41.60
2022-12-18T08:21:28.687Z,43.75
2022-12-18T08:23:58.090Z,47.50
2022-12-18T08:26:29.625Z,49.00
2022-12-18T08:28:59.533Z,47.75
2022-12-18T08:31:27.942Z,37.50
2022-12-18T08:33:55.592Z,37.50
2022-12-18T08:36:25.630Z,42.25
2022-12-18T08:38:54.101Z,44.50
2022-12-18T08:41:21.824Z,45.00
2022-12-18T08:44:07.295Z,40.25
2022-12-18T08:46:40.601Z,54.50
2022-12-18T08:49:08.774Z,43.00
2022-12-18T08:51:35.812Z,48.60
2022-12-18T08:54:02.896Z,50.40
2022-12-18T08:56:31.584Z,38.40
2022-12-18T08:58:58.523Z,56.20
2022-12-18T09:01:26.156Z,55.20
2022-12-18T09:03:53.025Z,41.50
2022-12-18T09:06:24.853Z,52.25
2022-12-18T09:08:51.773Z,49.25
2022-12-18T09:11:27.463Z,50.80
2022-12-18T09:13:55.944Z,52.00
2022-12-18T09:16:30.305Z,38.20
2022-12-18T09:19:01.049Z,45.80
2022-12-18T09:21:31.095Z,44.40
2022-12-18T09:23:59.683Z,43.40
2022-12-18T09:26:27.493Z,51.20
2022-12-18T09:28:54.669Z,56.00
2022-12-18T09:31:24.847Z,58.80
2022-12-18T09:33:52.181Z,48.20
2022-12-18T09:36:20.501Z,49.40
2022-12-18T09:38:48.863Z,50.60
2022-12-18T09:41:42.383Z,45.80
2022-12-18T09:44:28.558Z,50.00
2022-12-18T09:47:18.526Z,49.60
2022-12-18T09:49:48.213Z,40.00
2022-12-18T09:52:38.757Z,43.60
2022-12-18T09:55:18.923Z,41.20
2022-12-18T09:58:02.603Z,58.60
2022-12-18T10:00:29.461Z,42.60
2022-12-18T10:03:10.102Z,45.00
2022-12-18T10:05:52.262Z,25.40
2022-12-18T10:08:57.582Z,42.60
2022-12-18T10:11:30.353Z,44.20
2022-12-18T10:14:29.424Z,51.20
2022-12-18T10:17:07.651Z,45.80
2022-12-18T10:19:52.502Z,45.80
2022-12-18T10:22:46.331Z,62.40
2022-12-18T10:25:26.250Z,39.60
2022-12-18T10:28:01.646Z,42.00
2022-12-18T10:30:28.815Z,48.40
2022-12-18T10:32:57.481Z,57.00
2022-12-18T10:35:27.957Z,54.20
2022-12-18T10:38:14.304Z,43.60
2022-12-18T10:41:05.910Z,51.00
2022-12-18T10:43:39.161Z,45.60
2022-12-18T10:46:20.992Z,48.00
2022-12-18T10:48:47.831Z,54.20
2022-12-18T10:51:41.531Z,41.20
2022-12-18T10:54:22.243Z,45.40
2022-12-18T10:56:49.780Z,46.20
2022-12-18T10:59:19.007Z,52.60
2022-12-18T11:02:00.253Z,65.60
2022-12-18T11:04:29.973Z,46.60
2022-12-18T11:07:06.061Z,56.40
2022-12-18T11:10:03.933Z,51.00
2022-12-18T11:12:31.211Z,61.00
2022-12-18T11:15:01.110Z,51.60
2022-12-18T11:17:36.500Z,59.80
2022-12-18T11:20:08.172Z,72.00
2022-12-18T11:22:37.836Z,48.80
2022-12-18T11:25:33.489Z,66.20
2022-12-18T11:28:06.354Z,41.80
2022-12-18T11:30:37.809Z,10.60
2022-12-18T11:33:07.903Z,57.00
2022-12-18T11:35:51.142Z,62.20
2022-12-18T11:38:37.949Z,65.60
2022-12-18T11:41:07.865Z,57.60
2022-12-18T11:43:39.764Z,127.25
2022-12-18T11:46:40.816Z,99.00
2022-12-18T11:49:36.350Z,72.80
2022-12-18T11:52:07.903Z,96.00
2022-12-18T11:54:34.903Z,77.20
2022-12-18T11:57:15.876Z,66.60
2022-12-18T11:59:54.333Z,68.80
2022-12-18T12:02:58.895Z,75.75
2022-12-18T12:06:02.763Z,73.60
2022-12-18T12:08:38.690Z,85.40
2022-12-18T12:11:22.263Z,58.60
2022-12-18T12:14:18.296Z,57.80
2022-12-18T12:17:05.355Z,58.00
2022-12-18T12:19:51.692Z,67.60
2022-12-18T12:23:09.151Z,66.20
2022-12-18T12:25:43.273Z,53.20
2022-12-18T12:28:43.970Z,63.00
2022-12-18T12:31:16.487Z,57.80
2022-12-18T12:33:46.492Z,67.00
2022-12-18T12:36:22.901Z,71.60
2022-12-18T12:38:58.670Z,67.60
2022-12-18T12:41:47.483Z,63.80
2022-12-18T12:44:25.374Z,68.40
2022-12-18T12:46:57.390Z,63.40
2022-12-18T12:49:29.280Z,55.40
2022-12-18T12:52:07.501Z,49.00
2022-12-18T12:54:35.980Z,52.20
2022-12-18T12:57:15.187Z,62.40
2022-12-18T13:00:07.319Z,59.20
2022-12-18T13:02:43.231Z,69.20
2022-12-18T13:05:35.545Z,51.00
2022-12-18T13:08:09.360Z,53.60
2022-12-18T13:10:45.392Z,53.60
2022-12-18T13:13:17.216Z,58.40
2022-12-18T13:16:08.746Z,57.40
2022-12-18T13:18:36.354Z,62.80
2022-12-18T13:21:35.652Z,53.80
2022-12-18T13:24:27.533Z,62.80
2022-12-18T13:26:55.024Z,64.80
2022-12-18T13:29:45.050Z,51.80
2022-12-18T13:32:25.226Z,60.40
2022-12-18T13:35:21.041Z,54.20
2022-12-18T13:37:54.804Z,46.00
2022-12-18T13:40:40.404Z,56.00
2022-12-18T13:43:28.904Z,56.00
2022-12-18T13:46:06.913Z,51.60
2022-12-18T13:48:39.313Z,30.80
2022-12-18T13:51:15.933Z,60.00
2022-12-18T13:54:04.100Z,58.40
2022-12-18T13:56:35.441Z,62.80
2022-12-18T13:59:08.442Z,65.80
2022-12-18T14:01:35.928Z,54.00
2022-12-18T14:04:19.533Z,57.20
2022-12-18T14:06:48.005Z,49.00
2022-12-18T14:09:21.702Z,63.80
2022-12-18T14:11:51.211Z,70.80
2022-12-18T14:14:19.470Z,55.20
2022-12-18T14:16:49.463Z,47.60
2022-12-18T14:19:19.555Z,53.20
2022-12-18T14:21:50.771Z,66.80
2022-12-18T14:24:20.563Z,56.20
2022-12-18T14:26:52.125Z,66.80
2022-12-18T14:29:21.570Z,75.00
2022-12-18T14:32:18.707Z,76.00
2022-12-18T14:34:55.284Z,64.60
2022-12-18T14:37:25.486Z,65.20
2022-12-18T14:39:58.162Z,68.20
2022-12-18T14:42:29.560Z,66.60
2022-12-18T14:45:39.397Z,68.80
2022-12-18T14:48:23.695Z,38.20
2022-12-18T14:51:03.803Z,46.80
2022-12-18T14:53:52.061Z,56.00
2022-12-18T14:56:25.273Z,60.40
2022-12-18T14:58:56.892Z,67.20
2022-12-18T15:01:33.814Z,55.80
2022-12-18T15:04:02.654Z,67.20
2022-12-18T15:06:36.301Z,68.40
2022-12-18T15:09:21.531Z,53.40
2022-12-18T15:11:48.731Z,67.00
2022-12-18T15:14:40.283Z,66.00
2022-12-18T15:17:22.653Z,72.60
2022-12-18T15:19:55.071Z,54.20
2022-12-18T15:22:30.829Z,74.60
2022-12-18T15:24:59.982Z,65.40
2022-12-18T15:27:31.881Z,64.60
2022-12-18T15:30:11.002Z,47.60
2022-12-18T15:32:39.741Z,82.25
2022-12-18T15:35:22.925Z,48.40
2022-12-18T15:37:51.642Z,76.00
2022-12-18T15:40:24.243Z,85.00
2022-12-18T15:43:14.132Z,77.25
2022-12-18T15:45:41.546Z,69.00
2022-12-18T15:48:26.845Z,72.60
2022-12-18T15:50:57.867Z,74.20
2022-12-18T15:53:26.651Z,66.60
2022-12-18T15:56:12.287Z,44.40
2022-12-18T15:58:39.250Z,67.00
2022-12-18T16:01:06.305Z,59.60
2022-12-18T16:03:33.411Z,59.80
2022-12-18T16:06:04.095Z,53.20
2022-12-18T16:08:31.355Z,72.20
2022-12-18T16:10:59.387Z,48.00
2022-12-18T16:13:26.458Z,56.00
2022-12-18T16:15:53.527Z,74.00
2022-12-18T16:18:20.606Z,67.00
2022-12-18T16:20:47.455Z,69.80
2022-12-18T16:23:14.187Z,61.00
2022-12-18T16:25:41.065Z,64.20
2022-12-18T16:28:07.837Z,61.00
2022-12-18T16:30:38.510Z,64.00
2022-12-18T16:33:07.517Z,62.40
2022-12-18T16:35:34.888Z,69.40
2022-12-18T16:38:01.676Z,61.00
2022-12-18T16:40:28.747Z,66.20
2022-12-18T16:42:55.566Z,60.80
2022-12-18T16:45:22.251Z,53.20
2022-12-18T16:47:49.201Z,65.40
2022-12-18T16:50:16.227Z,62.60
2022-12-18T16:52:43.583Z,71.80
2022-12-18T16:55:10.781Z,68.60
2022-12-18T16:57:37.710Z,67.00
2022-12-18T17:00:06.183Z,58.00
2022-12-18T17:02:34.012Z,58.20
2022-12-18T17:05:01.429Z,62.40
2022-12-18T17:07:29.019Z,53.20
2022-12-18T17:09:56.682Z,58.00
2022-12-18T17:12:23.902Z,72.40
2022-12-18T17:14:51.334Z,67.00
2022-12-18T17:17:21.337Z,69.20
2022-12-18T17:19:49.058Z,64.40
2022-12-18T17:22:16.155Z,71.00
2022-12-18T17:24:43.889Z,68.40
2022-12-18T17:27:11.374Z,53.00
2022-12-18T17:29:43.836Z,68.20
2022-12-18T17:32:14.363Z,67.40
2022-12-18T17:34:41.877Z,53.80
2022-12-18T17:37:09.890Z,74.40
2022-12-18T17:39:37.515Z,63.60
2022-12-18T17:42:05.303Z,62.60
2022-12-18T17:44:34.874Z,40.60
2022-12-18T17:47:02.833Z,50.00
2022-12-18T17:49:37.942Z,67.60
2022-12-18T17:52:05.712Z,70.00
2022-12-18T17:54:40.269Z,45.80
2022-12-18T17:57:07.782Z,60.80
2022-12-18T17:59:34.534Z,60.60
2022-12-18T18:02:01.434Z,63.40
2022-12-18T18:04:28.247Z,68.60
2022-12-18T18:06:54.955Z,52.60
2022-12-18T18:09:21.805Z,61.00
2022-12-18T18:12:07.065Z,70.00
2022-12-18T18:14:34.047Z,64.20
2022-12-18T18:17:04.640Z,71.00
2022-12-18T18:19:33.410Z,70.80
2022-12-18T18:22:00.379Z,75.60
2022-12-18T18:24:27.675Z,67.60
2022-12-18T18:26:54.603Z,66.20
2022-12-18T18:29:26.526Z,77.40
2022-12-18T18:31:54.156Z,69.80
2022-12-18T18:34:24.288Z,66.80
2022-12-18T18:36:51.684Z,50.80
2022-12-18T18:39:19.237Z,62.20
2022-12-18T18:41:48.228Z,56.00
2022-12-18T18:44:17.063Z,46.40
2022-12-18T18:46:44.439Z,57.80
2022-12-18T18:49:11.737Z,60.60
2022-12-18T18:51:38.464Z,73.80
2022-12-18T18:54:05.256Z,58.40
2022-12-18T18:59:19.707Z,69.60
2022-12-18T19:01:52.802Z,62.80
2022-12-18T19:04:19.947Z,76.00
2022-12-18T19:06:47.934Z,63.40
2022-12-18T19:09:15.546Z,57.80
2022-12-18T19:12:00.914Z,66.60
2022-12-18T19:14:27.721Z,68.40
2022-12-18T19:16:54.595Z,60.00
2022-12-18T19:19:22.566Z,65.20
2022-12-18T19:21:50.234Z,60.80
2022-12-18T19:24:16.905Z,67.80
2022-12-18T19:26:44.113Z,69.60
2022-12-18T19:29:12.426Z,65.40
2022-12-18T19:31:39.296Z,74.40
2022-12-18T19:34:07.395Z,67.20
2022-12-18T19:36:39.308Z,58.20
2022-12-18T19:39:19.725Z,52.00
2022-12-18T19:41:47.108Z,54.00
2022-12-18T19:44:16.075Z,52.40
2022-12-18T19:46:44.218Z,71.80
2022-12-18T19:49:17.358Z,60.00
2022-12-18T19:51:44.860Z,69.40
2022-12-18T19:54:16.749Z,71.00
2022-12-18T19:56:45.176Z,65.40
2022-12-18T19:59:12.784Z,69.80
2022-12-18T20:01:40.944Z,74.40
2022-12-18T20:04:08.267Z,67.60
2022-12-18T20:06:51.595Z,65.20
2022-12-18T20:09:19.304Z,68.80
2022-12-18T20:11:48.097Z,85.60
2022-12-18T20:14:21.154Z,60.00
2022-12-18T20:16:51.154Z,69.00
2022-12-18T20:19:18.551Z,70.00
2022-12-18T20:21:46.177Z,71.00
2022-12-18T20:24:13.249Z,69.20
2022-12-18T20:26:40.692Z,79.80
2022-12-18T20:29:07.569Z,57.80
2022-12-18T20:31:34.483Z,67.20
2022-12-18T20:34:02.770Z,69.60
2022-12-18T20:36:31.908Z,64.00
2022-12-18T20:39:01.792Z,65.60
2022-12-18T20:41:37.402Z,56.80
2022-12-18T20:44:19.003Z,56.80
2022-12-18T20:46:50.084Z,70.60
2022-12-18T20:49:16.866Z,49.80
2022-12-18T20:51:43.666Z,69.60
2022-12-18T20:54:11.988Z,59.60
2022-12-18T20:56:39.090Z,51.00
2022-12-18T20:59:05.899Z,69.60
2022-12-18T21:01:33.150Z,62.80
2022-12-18T21:04:02.557Z,59.00
2022-12-18T21:06:29.295Z,76.00
2022-12-18T21:08:56.151Z,70.40
2022-12-18T21:11:41.378Z,53.80
2022-12-18T21:14:27.896Z,55.00
2022-12-18T21:16:55.985Z,69.60
2022-12-18T21:19:25.308Z,53.80
2022-12-18T21:21:56.699Z,62.60
2022-12-18T21:24:24.647Z,52.80
2022-12-18T21:26:54.378Z,43.60
2022-12-18T21:29:23.999Z,64.80
2022-12-18T21:31:54.010Z,69.80
2022-12-18T21:34:26.535Z,57.60
2022-12-18T21:36:54.169Z,45.40
2022-12-18T21:39:22.544Z,51.60
2022-12-18T21:42:09.031Z,50.80
2022-12-18T21:44:41.495Z,50.20
2022-12-18T21:47:22.703Z,51.00
2022-12-18T21:49:53.878Z,58.60
2022-12-18T21:52:32.241Z,54.60
2022-12-18T21:55:08.888Z,50.80
2022-12-18T21:57:38.500Z,53.80
2022-12-18T22:00:06.815Z,60.20
2022-12-18T22:02:33.897Z,49.00
2022-12-18T22:05:00.907Z,67.00
2022-12-18T22:07:29.406Z,66.20
2022-12-18T22:09:56.115Z,54.80
2022-12-18T22:12:43.108Z,63.40
2022-12-18T22:15:11.566Z,46.00
2022-12-18T22:17:40.034Z,52.20
2022-12-18T22:20:09.391Z,54.20
2022-12-18T22:22:36.136Z,60.40
2022-12-18T22:25:02.989Z,44.40
2022-12-18T22:27:29.845Z,47.40
2022-12-18T22:30:05.822Z,42.60
2022-12-18T22:32:35.141Z,49.80
2022-12-18T22:35:09.248Z,59.20
2022-12-18T22:37:39.812Z,46.20
2022-12-18T22:40:07.507Z,51.60
2022-12-18T22:42:36.974Z,48.60
2022-12-18T22:45:04.027Z,51.40
2022-12-18T22:47:30.930Z,55.00
2022-12-18T22:49:59.106Z,51.00
2022-12-18T22:52:25.961Z,49.60
2022-12-18T22:54:54.056Z,49.80
2022-12-18T22:57:24.638Z,70.20
2022-12-18T22:59:52.187Z,61.80
2022-12-18T23:02:19.757Z,50.60
2022-12-18T23:04:47.958Z,55.80
2022-12-18T23:07:15.787Z,55.00
2022-12-18T23:09:43.331Z,43.00
2022-12-18T23:12:15.198Z,56.80
2022-12-18T23:14:42.396Z,46.80
2022-12-18T23:17:09.290Z,44.40
2022-12-18T23:19:36.628Z,50.40
2022-12-18T23:22:06.108Z,57.80
2022-12-18T23:24:37.009Z,56.60
2022-12-18T23:27:04.858Z,56.60
2022-12-18T23:29:36.155Z,52.20
2022-12-18T23:32:03.181Z,58.20
2022-12-18T23:34:30.041Z,53.00
2022-12-18T23:36:57.576Z,71.80
2022-12-18T23:39:29.511Z,63.00
2022-12-18T23:41:59.917Z,58.80
2022-12-18T23:44:27.357Z,67.20
2022-12-18T23:46:54.196Z,54.00
2022-12-18T23:49:21.035Z,38.00
2022-12-18T23:51:48.158Z,62.80
2022-12-18T23:54:15.029Z,56.80
2022-12-18T23:56:42.109Z,44.80
2022-12-18T23:59:09.085Z,72.80
